Aeroporto :
LOGIN :

Iscrizione | Disclaimer

   EN    FR    IT 

 










Sommario :    VFR   VFR Marginale   IFR   IFR Intensivo   IFR Molto Intensivo
Visibilità : 
Base nubi : 
>= 8 km
>= 3000ft
5 / 8 km
1000 / 3000 ft
1500m / 5 km
500 / 1000 ft
800 / 1500m
200 / 500 ft
< 800m
< 200 ft
Simboli :   Temporali  Nebbia  Neve Forte  Precipitazioni Forti  Vento > 20 kt
SIGMETs :   Varie  Temporali  Ghiacco  Turbolenza  Onda orograficha  Ceneri Vulcaniche






- Altitudine del aeroporto : 919 ft
- Codice IATA : AZR


DAUA - Touat Cheikh Sidi Mohamed Belk

ULTIMO METAR :
  • 252300Z 12011KT 8000 NSC 14/M05 Q1020

METARs OBSOLETI :
  • 252200Z 13010KT 8000 NSC 15/M04 Q1020
  • 252100Z 12009KT 8000 NSC 16/M05 Q1020

TAF TAF DAUA
Valido dal 25 a 18 ore il 26 a 18 ore UTC


251700Z 2518/2618 14010KT 8000 SCT046 SCT130
PROB30
TEMPO 2518/2522 4000 HZ FEW040TCU
BECMG 2603/2606 VRB02KT
BECMG 2609/2612 02012KT



MetMap, La meteo Aeronautica in un colpo d'occhio ! - Copyright ORBIFLY Dicembre 2007 - Disclaimer

ORBIFLY MET'MAP TEAM :

Programmazione e sviluppo : Alexandra Zaïnal
Concezione : Baudouin d'Aumeries
Aiuto per la programmazione : Marc-Olivier Méhu
Supporto tecnico e logistico : Manuel Goepfert
Aiuto per la traduzione : Arnaldo La Scala

Contatto : metmap@orbifly.com




FONTI E CREDITI :

   NOAA